Time;durP1;ratioP1;P1;durP2;ratioP2;P2;SDS_P1;SDS_P2;PMS_P1;PMS_P2;Temp;Humidity;BMP_temperature;BMP_pressure;BME280_temperature;BME280_humidity;BME280_pressure;Samples;Min_cycle;Max_cycle;Signal;HPM_P1;HPM_P2
2023/01/26 00:01:37;;;;;;;1.48;0.47;;;;;;;1.92;100.00;102204.41;5083856;28;20028;-48
2023/01/26 00:04:02;;;;;;;2.00;0.70;;;;;;;1.85;100.00;102205.69;5092172;28;20430;-49
2023/01/26 00:06:28;;;;;;;1.25;0.47;;;;;;;1.65;100.00;102197.28;5085090;28;20031;-51
2023/01/26 00:08:56;;;;;;;1.05;0.25;;;;;;;1.55;100.00;102192.66;5085121;28;20416;-52
2023/01/26 00:11:25;;;;;;;0.85;0.25;;;;;;;1.48;100.00;102190.44;5075597;28;20074;-54
2023/01/26 00:13:51;;;;;;;2.47;0.65;;;;;;;1.39;100.00;102192.72;5092080;28;20114;-51
2023/01/26 00:16:17;;;;;;;3.78;1.35;;;;;;;1.40;100.00;102187.41;5084116;28;20027;-50
2023/01/26 00:18:42;;;;;;;2.92;0.88;;;;;;;1.46;100.00;102186.22;5092947;28;20024;-52
2023/01/26 00:21:11;;;;;;;2.72;1.00;;;;;;;1.42;100.00;102187.31;5076738;28;20032;-51
2023/01/26 00:23:36;;;;;;;1.10;0.60;;;;;;;1.37;100.00;102192.84;5085736;28;20039;-51
2023/01/26 00:26:05;;;;;;;3.70;0.93;;;;;;;1.27;100.00;102195.13;5091226;28;20473;-53
2023/01/26 00:28:30;;;;;;;3.90;0.98;;;;;;;1.34;100.00;102184.31;5076856;28;20474;-51
2023/01/26 00:31:03;;;;;;;1.10;0.73;;;;;;;1.35;100.00;102188.63;5086255;28;20059;-52
2023/01/26 00:33:29;;;;;;;4.18;0.68;;;;;;;1.24;100.00;102195.31;5083933;28;20028;-50
2023/01/26 00:35:54;;;;;;;4.72;1.98;;;;;;;1.15;100.00;102192.38;5088169;28;20413;-50
2023/01/26 00:38:20;;;;;;;0.73;0.50;;;;;;;1.12;100.00;102196.00;5084023;28;20016;-50
2023/01/26 00:40:45;;;;;;;3.90;0.55;;;;;;;1.06;100.00;102194.59;5068755;28;20115;-48
2023/01/26 00:43:10;;;;;;;5.22;0.77;;;;;;;0.88;100.00;102200.88;5087890;28;20404;-50
2023/01/26 00:45:36;;;;;;;1.88;1.20;;;;;;;0.80;100.00;102196.06;5083609;28;20351;-48
2023/01/26 00:48:01;;;;;;;0.73;0.40;;;;;;;0.71;100.00;102193.97;5086444;28;20089;-50
2023/01/26 00:50:27;;;;;;;1.13;0.68;;;;;;;0.62;100.00;102199.66;5079070;28;20498;-48
2023/01/26 00:52:52;;;;;;;7.13;1.02;;;;;;;0.73;100.00;102191.28;5078536;28;20047;-51
2023/01/26 00:55:18;;;;;;;3.80;0.73;;;;;;;0.75;100.00;102194.63;5078877;28;20036;-49
2023/01/26 00:57:43;;;;;;;0.77;0.35;;;;;;;0.68;100.00;102199.34;5081680;28;20100;-49
2023/01/26 01:00:12;;;;;;;0.68;0.43;;;;;;;0.70;100.00;102192.28;5083869;28;20138;-51
2023/01/26 01:02:38;;;;;;;0.85;0.60;;;;;;;0.57;100.00;102194.72;5082249;28;20545;-51
2023/01/26 01:05:04;;;;;;;2.42;0.57;;;;;;;0.44;100.00;102193.72;5083897;28;20016;-53
2023/01/26 01:07:29;;;;;;;2.13;0.80;;;;;;;0.47;100.00;102184.88;5078575;28;20085;-49
2023/01/26 01:09:54;;;;;;;0.82;0.82;;;;;;;0.43;100.00;102186.78;5092595;28;20054;-53
2023/01/26 01:12:20;;;;;;;3.60;1.48;;;;;;;0.68;100.00;102201.97;5087884;28;20030;-48
2023/01/26 01:14:45;;;;;;;4.57;0.65;;;;;;;0.66;100.00;102188.16;5098770;28;20039;-51
2023/01/26 01:17:10;;;;;;;4.25;0.77;;;;;;;0.77;100.00;102191.00;5088610;28;20035;-50
2023/01/26 01:19:36;;;;;;;2.00;1.05;;;;;;;0.71;100.00;102195.72;5082242;28;20099;-49
2023/01/26 01:22:02;;;;;;;5.07;0.40;;;;;;;0.54;100.00;102191.41;5090426;28;20025;-49
2023/01/26 01:24:27;;;;;;;2.35;0.70;;;;;;;0.65;100.00;102189.91;5094190;28;20016;-51
2023/01/26 01:26:53;;;;;;;6.72;0.93;;;;;;;0.83;100.00;102192.44;5093965;28;20073;-50
2023/01/26 01:29:18;;;;;;;8.15;0.80;;;;;;;0.86;100.00;102187.88;5082856;28;20143;-49
2023/01/26 01:31:43;;;;;;;2.90;0.60;;;;;;;0.93;100.00;102191.00;5077515;28;20068;-51
2023/01/26 01:34:09;;;;;;;5.13;1.13;;;;;;;0.88;100.00;102190.41;5083361;28;20067;-52
2023/01/26 01:36:34;;;;;;;4.07;0.90;;;;;;;0.77;100.00;102196.22;5090358;28;20074;-50
2023/01/26 01:39:00;;;;;;;7.57;2.17;;;;;;;0.67;100.00;102199.41;5088199;28;20031;-50
2023/01/26 01:41:26;;;;;;;5.30;0.63;;;;;;;0.80;100.00;102188.22;5079997;28;20075;-53
2023/01/26 01:44:11;;;;;;;1.15;0.63;;;;;;;0.87;100.00;102200.00;5077602;28;20028;-53
2023/01/26 01:46:37;;;;;;;4.50;0.80;;;;;;;0.90;100.00;102206.81;5081659;28;20515;-48
2023/01/26 01:49:10;;;;;;;2.97;1.20;;;;;;;0.95;100.00;102207.41;5082636;28;20025;-51
2023/01/26 01:51:42;;;;;;;0.38;0.10;;;;;;;1.08;100.00;102204.94;5080932;28;20417;-48
2023/01/26 01:54:12;;;;;;;4.85;0.60;;;;;;;1.03;100.00;102202.63;5088273;28;20036;-49
2023/01/26 01:56:41;;;;;;;2.83;0.57;;;;;;;0.99;100.00;102198.47;5080906;28;20079;-53
2023/01/26 01:59:09;;;;;;;2.42;0.98;;;;;;;1.07;100.00;102200.66;5083672;28;20064;-52
2023/01/26 02:01:34;;;;;;;5.72;3.28;;;;;;;1.12;100.00;102203.00;5089955;28;20437;-48
2023/01/26 02:04:03;;;;;;;1.60;0.43;;;;;;;1.10;100.00;102205.69;5079481;28;20074;-49
2023/01/26 02:06:45;;;;;;;6.30;0.52;;;;;;;1.03;100.00;102205.22;5085476;28;20056;-48
2023/01/26 02:10:17;;;;;;;5.25;0.82;;;;;;;1.18;100.00;102210.50;5088274;28;20040;-50
2023/01/26 02:11:58;;;;;;;4.45;0.70;;;;;;;1.23;100.00;102209.28;5080228;28;20508;-50
2023/01/26 02:14:24;;;;;;;0.70;0.32;;;;;;;1.34;100.00;102219.13;5086218;28;20269;-50
2023/01/26 02:16:49;;;;;;;1.80;0.63;;;;;;;1.37;100.00;102210.25;5080813;28;20059;-53
2023/01/26 02:19:40;;;;;;;3.80;1.15;;;;;;;1.39;100.00;102214.47;5086319;28;20036;-51
2023/01/26 02:22:18;;;;;;;3.15;0.52;;;;;;;1.28;100.00;102202.03;5078744;28;20041;-54
2023/01/26 02:24:44;;;;;;;2.20;0.20;;;;;;;1.30;100.00;102200.19;5076979;28;20769;-50
2023/01/26 02:27:09;;;;;;;2.53;1.38;;;;;;;1.14;100.00;102201.16;5085565;28;20042;-50
2023/01/26 02:29:35;;;;;;;0.73;0.08;;;;;;;1.08;100.00;102189.25;5082825;28;20462;-53
2023/01/26 02:32:00;;;;;;;7.30;0.60;;;;;;;1.15;100.00;102197.59;5081901;28;20103;-51
2023/01/26 02:34:27;;;;;;;8.50;0.85;;;;;;;1.18;100.00;102192.19;5094707;28;20032;-49
2023/01/26 02:36:59;;;;;;;5.55;0.60;;;;;;;1.24;100.00;102200.53;5079372;28;20035;-51
2023/01/26 02:39:47;;;;;;;2.38;0.20;;;;;;;1.38;100.00;102204.13;5088985;28;20036;-49
2023/01/26 02:44:57;;;;;;;4.28;0.43;;;;;;;1.55;100.00;102210.97;5084316;28;20309;-49
2023/01/26 02:47:22;;;;;;;4.30;0.38;;;;;;;1.67;100.00;102216.31;5078521;28;20282;-54
2023/01/26 02:49:49;;;;;;;1.67;0.25;;;;;;;1.44;100.00;102212.44;5082700;28;20024;-51
2023/01/26 02:52:18;;;;;;;0.68;0.13;;;;;;;1.38;100.00;102212.81;5074651;28;20473;-51
2023/01/26 02:57:29;;;;;;;5.68;0.40;;;;;;;1.41;100.00;102217.00;5076027;28;20170;-51
2023/01/26 02:59:54;;;;;;;1.58;0.28;;;;;;;1.22;100.00;102223.31;5086768;28;20505;-51
2023/01/26 03:02:19;;;;;;;3.70;0.50;;;;;;;1.16;100.00;102223.66;5087154;28;20045;-51
2023/01/26 03:04:45;;;;;;;1.17;0.20;;;;;;;1.16;100.00;102220.19;5081788;28;20060;-50
2023/01/26 03:07:10;;;;;;;3.03;0.28;;;;;;;1.18;100.00;102229.63;5085284;28;20028;-48
2023/01/26 03:09:35;;;;;;;6.22;0.50;;;;;;;1.15;100.00;102219.34;5080933;28;20392;-48
2023/01/26 03:12:02;;;;;;;1.10;0.40;;;;;;;1.27;100.00;102221.25;5089013;28;20031;-53
2023/01/26 03:14:27;;;;;;;2.25;0.00;;;;;;;1.41;100.00;102225.69;5094206;28;20031;-49
2023/01/26 03:16:54;;;;;;;2.90;0.50;;;;;;;1.61;100.00;102221.91;5082044;28;20401;-50
2023/01/26 03:27:46;;;;;;;5.78;0.20;;;;;;;2.34;100.00;102221.03;5080073;28;20035;-48
2023/01/26 03:30:13;;;;;;;3.22;0.20;;;;;;;2.38;100.00;102217.28;5083343;28;20346;-53
2023/01/26 03:32:39;;;;;;;3.25;0.20;;;;;;;2.34;100.00;102207.94;5080878;28;20093;-49
2023/01/26 03:35:05;;;;;;;0.90;0.05;;;;;;;2.31;100.00;102210.75;5085667;28;20024;-49
2023/01/26 03:37:35;;;;;;;1.83;0.70;;;;;;;2.22;100.00;102220.03;5087984;28;20058;-52
2023/01/26 03:56:31;;;;;;;4.32;0.40;;;;;;;2.26;100.00;102224.13;5087852;28;20039;-52
2023/01/26 03:59:08;;;;;;;1.55;1.15;;;;;;;2.26;100.00;102231.13;5082362;28;20504;-51
2023/01/26 04:01:38;;;;;;;2.05;0.25;;;;;;;2.30;100.00;102240.50;5085670;28;20074;-49
2023/01/26 04:09:41;;;;;;;0.57;0.17;;;;;;;2.28;100.00;102240.56;5083723;28;20135;-49
2023/01/26 04:12:08;;;;;;;2.25;0.60;;;;;;;2.35;100.00;102243.63;5078627;28;20069;-49
2023/01/26 04:22:47;;;;;;;5.35;0.20;;;;;;;2.58;100.00;102239.59;5083604;28;20055;-48
2023/01/26 04:25:15;;;;;;;3.97;0.55;;;;;;;2.62;100.00;102251.56;5091127;28;20458;-52
2023/01/26 04:27:41;;;;;;;1.52;0.35;;;;;;;2.57;100.00;102243.16;5079779;28;20070;-51
2023/01/26 04:30:10;;;;;;;6.18;2.35;;;;;;;2.57;100.00;102248.41;5083441;28;20032;-52
2023/01/26 04:32:36;;;;;;;6.85;0.43;;;;;;;2.65;100.00;102253.16;5079061;28;20020;-55
2023/01/26 04:35:03;;;;;;;2.67;0.30;;;;;;;2.76;100.00;102248.94;5079818;28;20032;-51
2023/01/26 04:37:28;;;;;;;4.78;0.47;;;;;;;2.77;100.00;102249.78;5089203;28;20123;-50
2023/01/26 04:39:54;;;;;;;1.80;0.13;;;;;;;2.72;100.00;102262.31;5078474;28;20032;-49
2023/01/26 04:42:19;;;;;;;8.40;0.40;;;;;;;2.74;100.00;102245.56;5097598;28;20047;-51
2023/01/26 04:44:45;;;;;;;2.53;0.32;;;;;;;2.75;100.00;102249.03;5094212;28;20546;-50
2023/01/26 04:47:10;;;;;;;1.13;0.40;;;;;;;2.78;100.00;102248.84;5081972;28;20033;-52
2023/01/26 04:49:35;;;;;;;0.65;0.15;;;;;;;2.89;100.00;102248.16;5075877;28;20322;-49
2023/01/26 04:52:01;;;;;;;2.03;0.43;;;;;;;2.98;100.00;102248.41;5083649;28;20052;-52
2023/01/26 04:54:26;;;;;;;3.53;0.57;;;;;;;3.03;100.00;102242.88;5086494;28;20126;-49
2023/01/26 04:56:51;;;;;;;3.55;0.40;;;;;;;3.13;100.00;102240.50;5086902;28;20063;-55
2023/01/26 04:59:17;;;;;;;6.10;0.20;;;;;;;3.27;100.00;102240.44;5080205;28;20043;-53
2023/01/26 05:01:42;;;;;;;3.40;0.25;;;;;;;3.39;100.00;102247.50;5086773;28;20031;-53
2023/01/26 05:04:11;;;;;;;3.47;0.47;;;;;;;3.52;100.00;102242.28;5088655;28;20661;-55
2023/01/26 05:06:37;;;;;;;7.68;1.98;;;;;;;3.61;100.00;102246.06;5079042;28;21307;-50
2023/01/26 05:09:03;;;;;;;1.73;0.43;;;;;;;3.62;100.00;102239.91;5086734;28;20016;-50
2023/01/26 05:11:29;;;;;;;0.95;0.40;;;;;;;3.55;100.00;102241.25;5087672;28;20396;-55
2023/01/26 05:13:54;;;;;;;4.43;0.45;;;;;;;3.49;100.00;102240.72;5097708;28;20032;-54
2023/01/26 05:16:20;;;;;;;8.48;0.57;;;;;;;3.54;100.00;102232.53;5088767;28;20032;-50
2023/01/26 05:18:45;;;;;;;2.03;0.68;;;;;;;3.57;100.00;102232.34;5082179;28;20177;-54
2023/01/26 05:21:11;;;;;;;3.35;0.30;;;;;;;3.55;100.00;102231.59;5081098;28;20043;-50
2023/01/26 05:23:36;;;;;;;6.03;1.23;;;;;;;3.56;100.00;102224.56;5074506;28;20423;-53
2023/01/26 05:26:03;;;;;;;3.47;0.32;;;;;;;3.46;100.00;102226.97;5083959;28;20137;-50
2023/01/26 05:28:28;;;;;;;4.47;0.20;;;;;;;3.49;100.00;102221.53;5080651;28;20115;-52
2023/01/26 05:30:54;;;;;;;0.73;0.28;;;;;;;3.45;100.00;102230.53;5087687;28;20425;-53
2023/01/26 05:33:20;;;;;;;7.72;0.28;;;;;;;3.37;100.00;102238.06;5097471;28;20136;-53
2023/01/26 05:35:49;;;;;;;1.40;0.20;;;;;;;3.45;100.00;102230.53;5084278;28;20025;-50
2023/01/26 05:38:14;;;;;;;2.20;0.25;;;;;;;3.45;100.00;102236.59;5089342;28;20111;-52
2023/01/26 05:40:40;;;;;;;1.33;0.43;;;;;;;3.42;100.00;102239.44;5090195;28;20099;-50
2023/01/26 05:43:07;;;;;;;5.47;0.70;;;;;;;3.44;100.00;102234.09;5099795;28;20519;-50
2023/01/26 05:45:32;;;;;;;4.78;1.35;;;;;;;3.46;100.00;102221.72;5092344;28;20032;-51
2023/01/26 05:47:57;;;;;;;3.15;0.60;;;;;;;3.46;100.00;102221.72;5077287;28;20021;-53
2023/01/26 05:50:23;;;;;;;1.95;0.25;;;;;;;3.51;100.00;102219.59;5088345;28;20469;-52
2023/01/26 05:52:48;;;;;;;1.08;0.35;;;;;;;3.56;100.00;102227.19;5088736;28;20052;-50
2023/01/26 05:55:14;;;;;;;3.40;0.20;;;;;;;3.48;100.00;102222.44;5088032;28;20028;-52
2023/01/26 05:57:40;;;;;;;8.43;0.60;;;;;;;3.40;100.00;102227.34;5082734;28;20028;-51
2023/01/26 06:00:06;;;;;;;5.18;0.82;;;;;;;3.38;100.00;102242.34;5086800;28;20045;-50
2023/01/26 06:02:32;;;;;;;1.20;0.38;;;;;;;3.39;100.00;102249.28;5081719;28;20044;-49
2023/01/26 06:04:57;;;;;;;2.55;0.60;;;;;;;3.35;100.00;102245.19;5085672;28;20477;-54
2023/01/26 06:07:22;;;;;;;1.23;0.40;;;;;;;3.32;100.00;102255.88;5093571;28;20030;-54
2023/01/26 06:09:48;;;;;;;4.05;1.23;;;;;;;3.34;100.00;102264.50;5085960;28;20067;-54
2023/01/26 06:12:18;;;;;;;16.90;1.55;;;;;;;3.24;100.00;102254.59;5105754;28;20023;-51
2023/01/26 06:14:44;;;;;;;4.45;0.32;;;;;;;3.27;100.00;102264.03;5084571;28;20096;-51
2023/01/26 06:17:10;;;;;;;0.40;0.20;;;;;;;3.28;100.00;102260.50;5094588;28;20574;-54
2023/01/26 06:19:36;;;;;;;9.52;0.70;;;;;;;3.40;100.00;102264.91;5086602;28;20129;-50
2023/01/26 06:22:02;;;;;;;2.75;0.88;;;;;;;3.42;100.00;102263.03;5093114;28;20127;-49
2023/01/26 06:24:28;;;;;;;7.25;0.75;;;;;;;3.36;100.00;102276.56;5078249;28;20036;-52
2023/01/26 06:26:54;;;;;;;2.20;0.30;;;;;;;3.27;100.00;102264.88;5096046;28;20576;-51
2023/01/26 06:29:19;;;;;;;3.80;0.35;;;;;;;3.27;100.00;102280.59;5086124;28;20128;-52
2023/01/26 06:31:44;;;;;;;2.83;0.90;;;;;;;3.30;100.00;102279.56;5084281;28;20032;-52
2023/01/26 06:34:10;;;;;;;5.03;1.50;;;;;;;3.30;100.00;102276.94;5086860;28;20034;-50
2023/01/26 06:36:35;;;;;;;1.67;0.70;;;;;;;3.38;100.00;102286.94;5092123;28;20043;-55
2023/01/26 06:39:01;;;;;;;1.00;0.45;;;;;;;3.43;100.00;102295.34;5098288;28;20016;-54
2023/01/26 06:41:26;;;;;;;0.90;0.17;;;;;;;3.48;100.00;102277.50;5089574;28;20040;-53
2023/01/26 06:43:51;;;;;;;4.03;0.82;;;;;;;3.49;100.00;102290.53;5083044;28;20060;-53
2023/01/26 06:46:18;;;;;;;11.55;1.25;;;;;;;3.61;100.00;102294.13;5092188;28;20028;-52
2023/01/26 06:48:44;;;;;;;2.08;0.60;;;;;;;3.72;100.00;102296.91;5072677;28;20436;-49
2023/01/26 06:51:15;;;;;;;3.05;0.17;;;;;;;3.49;100.00;102298.41;5093957;28;20176;-55
2023/01/26 06:53:51;;;;;;;3.35;0.52;;;;;;;3.46;100.00;102305.66;5089097;28;20036;-50
2023/01/26 06:56:18;;;;;;;4.53;0.98;;;;;;;3.48;100.00;102307.22;5078014;28;20034;-52
2023/01/26 06:58:43;;;;;;;6.05;0.40;;;;;;;3.45;100.00;102304.78;5081028;28;20063;-51
2023/01/26 07:01:15;;;;;;;5.93;2.17;;;;;;;3.49;100.00;102311.53;5086721;28;20051;-49
2023/01/26 07:03:41;;;;;;;6.35;0.77;;;;;;;3.54;100.00;102313.84;5089751;28;20099;-54
2023/01/26 07:06:10;;;;;;;1.65;0.20;;;;;;;3.57;100.00;102316.28;5090014;28;20123;-54
2023/01/26 07:08:35;;;;;;;1.92;0.65;;;;;;;3.61;100.00;102309.03;5080505;28;20024;-55
2023/01/26 07:11:00;;;;;;;2.88;0.68;;;;;;;3.60;100.00;102302.94;5076795;28;20411;-49
2023/01/26 07:13:26;;;;;;;1.20;0.38;;;;;;;3.52;100.00;102299.16;5085135;28;20058;-51
2023/01/26 07:15:51;;;;;;;4.18;0.38;;;;;;;3.37;100.00;102308.84;5074782;28;20075;-54
2023/01/26 07:18:16;;;;;;;0.60;0.15;;;;;;;3.40;100.00;102309.47;5075644;28;20055;-54
2023/01/26 07:20:42;;;;;;;3.28;0.25;;;;;;;3.41;100.00;102311.19;5072017;28;20213;-52
2023/01/26 07:23:07;;;;;;;3.40;0.40;;;;;;;3.42;100.00;102314.66;5071525;28;20056;-52
2023/01/26 07:25:32;;;;;;;4.22;1.20;;;;;;;3.40;100.00;102330.47;5073375;28;20430;-52
2023/01/26 07:27:58;;;;;;;2.47;0.95;;;;;;;3.55;100.00;102323.38;5074223;28;20423;-54
2023/01/26 07:30:26;;;;;;;3.38;0.30;;;;;;;3.50;100.00;102342.03;5071350;28;20038;-53
2023/01/26 07:32:51;;;;;;;8.05;1.95;;;;;;;3.48;100.00;102333.47;5073359;28;20028;-51
2023/01/26 07:35:17;;;;;;;4.03;0.38;;;;;;;3.47;100.00;102330.91;5071345;28;20024;-49
2023/01/26 07:37:42;;;;;;;1.13;0.22;;;;;;;3.52;100.00;102315.72;5076998;28;20499;-53
2023/01/26 07:40:08;;;;;;;3.08;1.08;;;;;;;3.52;100.00;102312.28;5077039;28;20460;-52
2023/01/26 07:42:34;;;;;;;1.05;0.10;;;;;;;3.54;100.00;102311.22;5082864;28;20064;-55
2023/01/26 07:45:00;;;;;;;6.15;2.25;;;;;;;3.54;100.00;102316.47;5076403;28;20115;-51
2023/01/26 07:47:25;;;;;;;4.53;0.10;;;;;;;3.46;100.00;102326.63;5072950;28;20016;-50
2023/01/26 07:49:51;;;;;;;3.70;0.10;;;;;;;3.44;100.00;102323.25;5068741;28;20435;-52
2023/01/26 07:52:16;;;;;;;4.78;0.22;;;;;;;3.42;100.00;102325.13;5070569;28;20035;-51
2023/01/26 07:54:41;;;;;;;3.63;0.60;;;;;;;3.50;100.00;102338.59;5073980;28;20085;-50
2023/01/26 07:57:07;;;;;;;4.93;0.28;;;;;;;3.58;100.00;102325.81;5072246;28;20104;-52
2023/01/26 07:59:32;;;;;;;1.55;0.40;;;;;;;3.49;100.00;102336.91;5069904;28;20124;-50
2023/01/26 08:01:58;;;;;;;2.15;1.95;;;;;;;3.52;100.00;102330.63;5069680;28;20028;-53
2023/01/26 08:04:23;;;;;;;0.85;0.55;;;;;;;3.62;100.00;102313.34;5069321;28;20020;-55
2023/01/26 08:06:52;;;;;;;1.23;0.52;;;;;;;3.57;100.00;102310.19;5066827;28;20143;-52
2023/01/26 08:09:17;;;;;;;2.83;0.10;;;;;;;3.59;100.00;102321.41;5071292;28;20032;-51
2023/01/26 08:11:43;;;;;;;0.73;0.20;;;;;;;3.67;100.00;102319.97;5074507;28;20074;-55
2023/01/26 08:14:08;;;;;;;1.95;0.43;;;;;;;3.68;100.00;102323.44;5073572;28;20065;-55
2023/01/26 08:16:34;;;;;;;4.40;0.95;;;;;;;3.63;100.00;102325.50;5075424;28;20032;-52
2023/01/26 08:18:59;;;;;;;2.72;0.20;;;;;;;3.70;100.00;102330.25;5080323;28;20380;-52
2023/01/26 08:21:25;;;;;;;6.85;0.35;;;;;;;3.63;100.00;102331.59;5072368;28;20077;-55
2023/01/26 08:23:51;;;;;;;3.22;0.40;;;;;;;3.66;100.00;102335.81;5075419;28;20039;-51
2023/01/26 08:26:18;;;;;;;2.33;0.20;;;;;;;3.70;100.00;102327.63;5073394;28;20077;-54
2023/01/26 08:28:43;;;;;;;1.52;0.20;;;;;;;3.66;100.00;102333.19;5084687;28;20043;-49
2023/01/26 08:31:17;;;;;;;1.17;0.28;;;;;;;3.71;100.00;102325.84;5083149;28;20396;-52
2023/01/26 08:33:43;;;;;;;7.97;0.25;;;;;;;3.76;100.00;102326.38;5085149;28;20038;-51
2023/01/26 08:36:11;;;;;;;9.10;0.63;;;;;;;3.74;100.00;102325.63;5079334;28;20489;-55
2023/01/26 08:38:37;;;;;;;1.73;0.77;;;;;;;3.70;100.00;102325.00;5081073;28;20330;-56
2023/01/26 08:41:02;;;;;;;1.98;0.63;;;;;;;3.78;100.00;102321.03;5081416;28;20036;-54
2023/01/26 08:43:28;;;;;;;2.53;0.15;;;;;;;3.72;100.00;102324.91;5072403;28;20084;-54
2023/01/26 08:45:54;;;;;;;7.30;0.52;;;;;;;3.78;100.00;102331.53;5079458;28;20395;-52
2023/01/26 08:48:19;;;;;;;1.95;0.95;;;;;;;3.93;100.00;102331.34;5079434;28;20055;-53
2023/01/26 08:50:45;;;;;;;10.32;0.15;;;;;;;4.10;100.00;102338.09;5074248;28;20405;-54
2023/01/26 08:53:10;;;;;;;1.55;0.35;;;;;;;4.12;100.00;102338.84;5083613;28;20036;-49
2023/01/26 08:55:36;;;;;;;3.13;0.00;;;;;;;4.24;100.00;102349.47;5074639;28;20229;-54
2023/01/26 08:58:02;;;;;;;5.88;0.50;;;;;;;4.27;100.00;102338.75;5072414;28;20082;-52
2023/01/26 09:00:27;;;;;;;1.08;0.28;;;;;;;4.33;100.00;102347.03;5078990;28;20032;-52
2023/01/26 09:03:04;;;;;;;2.95;0.20;;;;;;;4.38;100.00;102344.09;5080013;28;20024;-51
2023/01/26 09:05:37;;;;;;;4.32;1.25;;;;;;;4.40;100.00;102349.25;5080833;28;20472;-55
2023/01/26 09:08:05;;;;;;;2.03;0.75;;;;;;;4.44;100.00;102348.94;5080514;28;20117;-55
2023/01/26 09:10:30;;;;;;;1.02;0.13;;;;;;;4.51;100.00;102354.59;5077598;28;20039;-55
2023/01/26 09:12:56;;;;;;;0.40;0.20;;;;;;;4.52;100.00;102357.13;5080448;28;20021;-55
2023/01/26 09:15:22;;;;;;;1.35;0.45;;;;;;;4.46;100.00;102361.97;5079566;28;20308;-52
2023/01/26 09:17:48;;;;;;;6.65;1.02;;;;;;;4.50;100.00;102353.78;5081397;28;20556;-53
2023/01/26 09:20:13;;;;;;;1.23;0.17;;;;;;;4.54;100.00;102365.75;5086440;28;20115;-48
2023/01/26 09:22:39;;;;;;;10.70;1.08;;;;;;;4.43;100.00;102362.19;5083165;28;20052;-50
2023/01/26 09:25:05;;;;;;;3.67;0.68;;;;;;;4.48;100.00;102375.84;5082826;28;20027;-48
2023/01/26 09:27:30;;;;;;;1.75;0.20;;;;;;;4.50;100.00;102374.78;5086150;28;20481;-50
2023/01/26 09:29:56;;;;;;;1.35;1.25;;;;;;;4.41;100.00;102372.78;5087684;28;20051;-52
2023/01/26 09:32:22;;;;;;;9.23;1.30;;;;;;;4.41;100.00;102374.56;5082617;28;20058;-50
2023/01/26 09:34:47;;;;;;;1.00;0.20;;;;;;;4.47;100.00;102380.25;5085324;28;20381;-51
2023/01/26 09:37:13;;;;;;;2.70;0.55;;;;;;;4.55;100.00;102374.47;5084739;28;20024;-55
2023/01/26 09:39:38;;;;;;;4.70;0.82;;;;;;;4.62;100.00;102375.75;5080261;28;20020;-53
2023/01/26 09:42:25;;;;;;;2.40;1.10;;;;;;;4.72;100.00;102378.56;5082514;28;20040;-51
2023/01/26 09:45:10;;;;;;;8.02;1.60;;;;;;;4.66;100.00;102368.47;5079361;28;20485;-55
2023/01/26 09:47:56;;;;;;;2.65;0.40;;;;;;;4.78;100.00;102370.25;5076715;28;20077;-53
2023/01/26 09:50:27;;;;;;;2.05;0.30;;;;;;;4.85;100.00;102365.41;5081503;28;20112;-55
2023/01/26 09:53:11;;;;;;;5.97;0.67;;;;;;;4.88;100.00;102360.78;5083238;28;20028;-54
2023/01/26 09:55:39;;;;;;;6.22;0.75;;;;;;;4.96;100.00;102355.00;5083864;28;20031;-51
2023/01/26 09:58:11;;;;;;;4.63;0.85;;;;;;;5.03;100.00;102359.72;5075596;28;20113;-55
2023/01/26 10:00:44;;;;;;;7.15;1.30;;;;;;;5.16;100.00;102361.44;5087555;28;20020;-51
2023/01/26 10:03:10;;;;;;;7.22;0.45;;;;;;;5.28;100.00;102357.09;5089586;28;20059;-51
2023/01/26 10:05:51;;;;;;;5.70;0.65;;;;;;;5.39;100.00;102363.25;5084781;28;20063;-49
2023/01/26 10:08:22;;;;;;;4.28;1.70;;;;;;;5.34;100.00;102349.59;5083085;28;20032;-54
2023/01/26 10:10:53;;;;;;;3.35;0.90;;;;;;;5.35;100.00;102363.63;5081507;28;20528;-53
2023/01/26 10:13:20;;;;;;;7.03;1.30;;;;;;;5.43;100.00;102359.47;5084644;28;20034;-51
2023/01/26 10:16:02;;;;;;;4.95;0.68;;;;;;;5.52;100.00;102367.63;5081179;28;20107;-54
2023/01/26 10:18:32;;;;;;;13.70;1.08;;;;;;;5.58;100.00;102364.56;5083842;28;20042;-52
2023/01/26 10:21:00;;;;;;;4.97;1.52;;;;;;;5.52;100.00;102365.84;5087787;28;20031;-55
2023/01/26 10:23:29;;;;;;;6.53;1.35;;;;;;;5.42;100.00;102367.44;5087913;28;20036;-54
2023/01/26 10:26:11;;;;;;;5.50;1.75;;;;;;;5.25;100.00;102374.78;5092677;28;20077;-52
2023/01/26 10:28:37;;;;;;;2.28;1.20;;;;;;;5.12;100.00;102388.91;5082747;28;20070;-52
2023/01/26 10:31:05;;;;;;;4.15;1.33;;;;;;;5.08;100.00;102390.06;5081248;28;20051;-52
2023/01/26 10:33:35;;;;;;;7.95;1.02;;;;;;;5.19;100.00;102392.81;5081714;28;20469;-50
2023/01/26 10:36:03;;;;;;;7.80;1.25;;;;;;;5.29;100.00;102406.13;5079754;28;20135;-54
2023/01/26 10:38:31;;;;;;;7.03;0.73;;;;;;;5.34;100.00;102399.56;5077767;28;20033;-52
2023/01/26 10:41:00;;;;;;;3.50;0.93;;;;;;;5.38;100.00;102398.41;5080433;28;20369;-50
2023/01/26 10:43:25;;;;;;;0.98;0.88;;;;;;;5.40;100.00;102399.16;5082987;28;20028;-51
2023/01/26 10:45:51;;;;;;;4.28;1.25;;;;;;;5.46;100.00;102392.59;5085281;28;20376;-49
2023/01/26 10:48:19;;;;;;;3.65;1.35;;;;;;;5.53;100.00;102395.66;5082075;28;20584;-53
2023/01/26 10:50:46;;;;;;;9.40;1.60;;;;;;;5.69;100.00;102397.03;5088870;28;20683;-48
2023/01/26 10:53:23;;;;;;;6.82;0.80;;;;;;;5.74;100.00;102391.44;5084947;28;20040;-53
2023/01/26 10:56:00;;;;;;;3.22;1.50;;;;;;;5.73;100.00;102388.91;5084921;28;20516;-52
2023/01/26 10:58:54;;;;;;;2.55;0.57;;;;;;;5.77;100.00;102379.84;5084939;28;20028;-50
2023/01/26 11:01:25;;;;;;;1.80;0.70;;;;;;;5.94;100.00;102381.25;5082743;28;20028;-48
2023/01/26 11:04:00;;;;;;;4.18;1.35;;;;;;;5.95;100.00;102383.78;5078122;28;20444;-54
2023/01/26 11:06:29;;;;;;;3.97;0.73;;;;;;;5.89;100.00;102386.84;5082124;28;20069;-50
2023/01/26 11:09:08;;;;;;;7.20;1.42;;;;;;;6.00;100.00;102388.69;5082337;28;20385;-53
2023/01/26 11:11:34;;;;;;;5.38;0.93;;;;;;;6.07;100.00;102392.56;5092341;28;20496;-51
2023/01/26 11:14:15;;;;;;;4.45;1.67;;;;;;;6.30;100.00;102383.75;5087248;28;20043;-51
2023/01/26 11:16:48;;;;;;;6.03;1.67;;;;;;;6.34;100.00;102381.72;5081359;28;20040;-51
2023/01/26 11:19:33;;;;;;;2.78;0.90;;;;;;;6.40;100.00;102388.31;5088831;28;20385;-49
2023/01/26 11:22:07;;;;;;;4.00;0.63;;;;;;;6.50;100.00;102384.03;5063308;28;20052;-51
2023/01/26 11:24:36;;;;;;;3.05;1.63;;;;;;;6.49;100.00;102377.91;5088079;28;20020;-54
2023/01/26 11:27:13;;;;;;;5.07;1.75;;;;;;;6.46;100.00;102380.78;5083983;28;20106;-52
2023/01/26 11:30:05;;;;;;;3.85;0.95;;;;;;;6.49;100.00;102382.34;5073248;28;20377;-49
2023/01/26 11:32:54;;;;;;;6.82;1.25;;;;;;;6.61;100.00;102386.69;5083139;28;20493;-49
2023/01/26 11:35:44;;;;;;;7.05;0.65;;;;;;;6.54;100.00;102383.69;5080960;28;20031;-52
2023/01/26 11:38:12;;;;;;;6.28;1.42;;;;;;;6.55;100.00;102381.88;5082995;28;20040;-48
2023/01/26 11:41:10;;;;;;;9.13;1.17;;;;;;;6.62;100.00;102376.97;5086049;28;20024;-53
2023/01/26 11:43:38;;;;;;;3.92;0.30;;;;;;;6.62;100.00;102372.53;5053335;28;20045;-49
2023/01/26 11:46:11;;;;;;;3.03;1.88;;;;;;;6.76;100.00;102366.19;5088344;28;20385;-52
2023/01/26 11:48:59;;;;;;;5.20;0.65;;;;;;;6.74;100.00;102368.97;5080553;28;20224;-53
2023/01/26 11:51:51;;;;;;;8.80;0.77;;;;;;;6.82;100.00;102362.25;5075134;28;20527;-50
2023/01/26 11:55:00;;;;;;;2.00;0.68;;;;;;;6.70;100.00;102358.75;5078911;28;20027;-55
2023/01/26 11:57:49;;;;;;;9.52;0.68;;;;;;;6.76;100.00;102363.53;5035117;28;20064;-52
2023/01/26 12:00:22;;;;;;;10.48;1.33;;;;;;;6.69;100.00;102367.66;5076282;28;20024;-51
2023/01/26 12:02:58;;;;;;;1.98;0.73;;;;;;;6.83;100.00;102358.66;5079752;28;20042;-51
2023/01/26 12:05:33;;;;;;;6.88;1.63;;;;;;;6.90;100.00;102358.03;5079987;28;20052;-51
2023/01/26 12:08:21;;;;;;;5.63;1.42;;;;;;;6.90;100.00;102359.84;5086640;28;20020;-54
2023/01/26 12:10:54;;;;;;;8.40;2.08;;;;;;;6.97;100.00;102359.25;5081191;28;20145;-52
2023/01/26 12:13:36;;;;;;;8.93;1.08;;;;;;;6.93;100.00;102370.16;5089474;28;20036;-49
2023/01/26 12:16:12;;;;;;;11.07;1.85;;;;;;;7.02;100.00;102368.56;5083235;28;20032;-53